EST,Max TemperatureF,Mean TemperatureF,Min TemperatureF,Max Dew PointF,MeanDew PointF,Min DewpointF,Max Humidity, Mean Humidity, Min Humidity, Max Sea Level PressureIn, Mean Sea Level PressureIn, Min Sea Level PressureIn, Max VisibilityMiles, Mean VisibilityMiles, Min VisibilityMiles, Max Wind SpeedMPH, Mean Wind SpeedMPH, Max Gust SpeedMPH,PrecipitationIn, CloudCover, Events, WindDirDegrees
2013-2-1,59,50,42,48,40,14,100,84,20,30.37,30.28,30.21,10,10,8,17,8,23,0.00,0,,274
2013-2-2,55,44,32,46,38,32,100,88,51,30.38,30.28,30.15,10,10,10,10,5,,0.00,0,,279
2013-2-3,62,53,44,54,44,28,100,80,27,30.19,30.07,29.98,10,10,10,14,8,23,0.00,1,,241
2013-2-4,53,43,33,48,39,30,100,88,44,30.17,30.10,30.07,10,10,10,8,3,,0.00,1,,261
2013-2-5,64,52,39,57,46,39,100,90,56,30.10,30.05,30.00,10,10,7,9,2,,0.00,1,,207
2013-2-6,68,60,53,57,55,50,100,93,56,30.18,30.12,30.06,10,9,2,6,3,,0.00,3,Rain,199
2013-2-7,62,58,53,63,57,54,100,99,88,30.17,30.00,29.74,10,5,0,16,6,29,0.19,6,Rain,53
2013-2-8,62,55,48,59,52,46,100,93,59,30.09,29.94,29.78,10,10,7,12,8,20,0.00,5,,286
2013-2-9,59,49,39,55,44,30,100,86,38,30.35,30.24,30.09,10,10,9,12,6,,0.00,0,,360
2013-2-10,62,50,39,63,51,39,100,94,72,30.37,30.29,30.20,10,10,8,9,4,17,0.00,1,,73
2013-2-11,66,62,59,63,61,57,100,96,78,30.23,30.16,30.09,10,6,2,9,4,18,0.66,6,Rain,197
2013-2-12,60,56,53,61,57,54,100,98,88,30.14,30.03,29.89,10,4,1,9,3,,0.81,8,Rain,12
2013-2-13,75,64,53,64,58,43,100,91,38,29.92,29.82,29.74,10,6,1,17,7,34,1.81,6,Rain-Thunderstorm,226
2013-2-14,53,48,42,54,47,43,100,94,71,30.10,30.02,29.91,10,10,8,9,4,,0.00,1,,311
2013-2-15,57,50,42,46,43,41,100,91,55,30.13,30.06,30.00,10,9,6,7,3,,0.00,0,,323
2013-2-16,53,46,37,48,42,23,100,90,40,30.10,29.97,29.90,10,9,4,17,6,34,0.00,1,,271
2013-2-17,48,37,26,37,6,-80,100,62,4,30.35,30.23,30.11,10,10,10,14,9,26,0.00,0,,290
2013-2-18,53,42,30,43,-7,-80,100,35,4,30.45,30.36,30.28,10,10,10,10,2,,0.00,0,,206
2013-2-19,62,52,41,55,49,41,100,92,55,30.28,30.13,30.00,10,9,2,16,3,25,0.00,2,Rain,226
2013-2-20,51,44,37,52,42,23,100,87,33,30.20,30.13,30.09,10,10,10,9,4,,0.00,0,,289
2013-2-21,59,48,37,55,46,36,100,92,42,30.20,30.13,30.11,10,10,10,7,2,,0.00,0,,70
2013-2-22,64,58,53,63,56,50,100,98,82,30.17,30.11,30.05,10,6,1,13,7,21,0.04,7,Rain,32
2013-2-23,62,56,51,63,55,52,100,99,94,30.06,29.95,29.82,10,4,1,12,5,18,0.53,7,Rain,360
2013-2-24,69,60,50,61,53,43,100,91,38,30.02,29.95,29.83,10,9,2,12,5,,0.00,3,,263
2013-2-25,60,52,44,57,50,45,100,98,82,30.05,29.99,29.92,10,6,2,20,4,26,0.00,6,Rain,37
2013-2-26,69,58,48,64,59,48,100,96,68,29.95,29.76,29.62,10,6,1,18,11,34,0.24,4,Rain-Thunderstorm,151
2013-2-27,60,55,50,61,50,36,100,87,51,29.94,29.87,29.77,10,10,10,12,8,18,0.00,2,,245
2013-2-28,62,54,46,55,45,28,100,80,29,29.93,29.89,29.83,10,10,9,16,8,26,0.00,0,,254